PWSweather.com
Personal Weather Stations
Station Observations
SPARKSRC
St. Petersburg, FL 33716

St. Petersburg, FL 33716

Lat: 27.876101, Lon: -82.657194

Elevation: 13

Station Type: Zephyr PWS-1000TD

Latest ConditionsUpdated 12:10:01 PM EDT Saturday, Oct 21, 2017
Currently Today's Max Today's Min Today's Average
Temperature 91.2°F32.9°C 91.2°F32.9°C 72.9°F22.7°C 77.4°F25.2°C
Dew Point 73.4°F23.0°C 74.4°F23.6°C 67.8°F19.9°C 70.0°F21.1°C
Winds 14.5 mph ENE23.3 kmh ENE 15.9 mph ENE25.6 kmh ENE - 7.9 mph 12.7 kmh
Wind Gusts 21.3 mph34.3 kmh 24.4 mph39.3 kmh - -
Humidity 56% 87% 56% 78%
Pressure 30.07 in1018.3 mb 30.08 in1018.6 mb 29.99 in1015.6 mb -
Hour Temp Dew Point Humidity Winds Wind Gusts Pressure Precip Precip Rate Daily Precip Total
12:10 PM 91.2°F32.9°C 73.4°F23.0°C 56% 14.5 mph ENE23.3 kmh ENE 21.3 mph34.3 kmh 30.07 in1018.3 mb 0.00 in0.0 mm 0.00 in0.0 mm 0.00 in0.0 mm
12:05 PM 90.9°F32.7°C 73.1°F22.8°C 56% 13.6 mph ENE21.9 kmh ENE 19.0 mph30.6 kmh 30.07 in1018.3 mb 0.00 in0.0 mm 0.00 in0.0 mm 0.00 in0.0 mm
12:00 PM 90.5°F32.5°C 73.3°F22.9°C 57% 14.5 mph ENE23.3 kmh ENE 19.0 mph30.6 kmh 30.07 in1018.3 mb 0.00 in0.0 mm 0.00 in0.0 mm 0.00 in0.0 mm
11:55 AM 90.1°F32.3°C 72.9°F22.7°C 57% 9.2 mph ENE14.8 kmh ENE 20.6 mph33.2 kmh 30.07 in1018.3 mb 0.00 in0.0 mm 0.00 in0.0 mm 0.00 in0.0 mm
11:50 AM 90.3°F32.4°C 73.1°F22.8°C 57% 12.1 mph ENE19.5 kmh ENE 24.4 mph39.3 kmh 30.07 in1018.3 mb 0.00 in0.0 mm 0.00 in0.0 mm 0.00 in0.0 mm
11:45 AM 90.7°F32.6°C 73.4°F23.0°C 57% 15.9 mph E25.6 kmh E 24.4 mph39.3 kmh 30.06 in1017.9 mb 0.00 in0.0 mm 0.00 in0.0 mm 0.00 in0.0 mm
11:40 AM 90.3°F32.4°C 73.6°F23.1°C 58% 13.0 mph E20.9 kmh E 21.3 mph34.3 kmh 30.07 in1018.3 mb 0.00 in0.0 mm 0.00 in0.0 mm 0.00 in0.0 mm
11:35 AM 90.1°F32.3°C 74.0°F23.3°C 59% 12.1 mph E19.5 kmh E 18.3 mph29.5 kmh 30.08 in1018.6 mb 0.00 in0.0 mm 0.00 in0.0 mm 0.00 in0.0 mm
11:30 AM 89.8°F32.1°C 74.1°F23.4°C 60% 10.7 mph E17.2 kmh E 20.6 mph33.2 kmh 30.07 in1018.3 mb 0.00 in0.0 mm 0.00 in0.0 mm 0.00 in0.0 mm
11:25 AM 89.4°F31.9°C 73.8°F23.2°C 60% 12.1 mph E19.5 kmh E 21.3 mph34.3 kmh 30.07 in1018.3 mb 0.00 in0.0 mm 0.00 in0.0 mm 0.00 in0.0 mm
11:20 AM 89.2°F31.8°C 73.6°F23.1°C 60% 15.9 mph ENE25.6 kmh ENE 21.3 mph34.3 kmh 30.07 in1018.3 mb 0.00 in0.0 mm 0.00 in0.0 mm 0.00 in0.0 mm
11:15 AM 89.1°F31.7°C 73.9°F23.3°C 61% 13.6 mph ENE21.9 kmh ENE 20.6 mph33.2 kmh 30.07 in1018.3 mb 0.00 in0.0 mm 0.00 in0.0 mm 0.00 in0.0 mm
11:10 AM 88.9°F31.6°C 73.8°F23.2°C 61% 13.0 mph ENE20.9 kmh ENE 21.3 mph34.3 kmh 30.07 in1018.3 mb 0.00 in0.0 mm 0.00 in0.0 mm 0.00 in0.0 mm
11:05 AM 88.7°F31.5°C 74.1°F23.4°C 62% 12.1 mph ENE19.5 kmh ENE 21.3 mph34.3 kmh 30.07 in1018.3 mb 0.00 in0.0 mm 0.00 in0.0 mm 0.00 in0.0 mm
11:00 AM 88.5°F31.4°C 74.4°F23.6°C 63% 14.5 mph E23.3 kmh E 19.7 mph31.7 kmh 30.06 in1017.9 mb 0.00 in0.0 mm 0.00 in0.0 mm 0.00 in0.0 mm
10:55 AM 88.0°F31.1°C 74.3°F23.5°C 64% 10.7 mph E17.2 kmh E 19.7 mph31.7 kmh 30.07 in1018.3 mb 0.00 in0.0 mm 0.00 in0.0 mm 0.00 in0.0 mm
10:50 AM 87.8°F31.0°C 74.2°F23.4°C 64% 13.0 mph E20.9 kmh E 19.7 mph31.7 kmh 30.07 in1018.3 mb 0.00 in0.0 mm 0.00 in0.0 mm 0.00 in0.0 mm
10:45 AM 87.3°F30.7°C 74.1°F23.4°C 65% 13.6 mph E21.9 kmh E 19.7 mph31.7 kmh 30.07 in1018.3 mb 0.00 in0.0 mm 0.00 in0.0 mm 0.00 in0.0 mm
10:40 AM 86.9°F30.5°C 74.2°F23.4°C 66% 14.5 mph ENE23.3 kmh ENE 18.3 mph29.5 kmh 30.08 in1018.6 mb 0.00 in0.0 mm 0.00 in0.0 mm 0.00 in0.0 mm
10:35 AM 86.4°F30.2°C 74.2°F23.4°C 67% 13.6 mph NE21.9 kmh NE 18.3 mph29.5 kmh 30.07 in1018.3 mb 0.00 in0.0 mm 0.00 in0.0 mm 0.00 in0.0 mm
10:30 AM 85.8°F29.9°C 74.1°F23.4°C 68% 9.2 mph NE14.8 kmh NE 14.5 mph23.3 kmh 30.07 in1018.3 mb 0.00 in0.0 mm 0.00 in0.0 mm 0.00 in0.0 mm
10:25 AM 85.6°F29.8°C 73.9°F23.3°C 68% 6.9 mph ENE11.1 kmh ENE 19.7 mph31.7 kmh 30.07 in1018.3 mb 0.00 in0.0 mm 0.00 in0.0 mm 0.00 in0.0 mm
10:20 AM 85.5°F29.7°C 73.8°F23.2°C 68% 6.9 mph ENE11.1 kmh ENE 19.7 mph31.7 kmh 30.07 in1018.3 mb 0.00 in0.0 mm 0.00 in0.0 mm 0.00 in0.0 mm
10:15 AM 84.9°F29.4°C 73.7°F23.2°C 69% 7.6 mph ENE12.2 kmh ENE 17.4 mph28.0 kmh 30.07 in1018.3 mb 0.00 in0.0 mm 0.00 in0.0 mm 0.00 in0.0 mm
10:10 AM 84.6°F29.2°C 73.8°F23.2°C 70% 9.8 mph ENE15.8 kmh ENE 15.9 mph25.6 kmh 30.07 in1018.3 mb 0.00 in0.0 mm 0.00 in0.0 mm 0.00 in0.0 mm
10:04 AM 84.2°F29.0°C 73.3°F22.9°C 70% 12.1 mph ENE19.5 kmh ENE 17.4 mph28.0 kmh 30.07 in1018.3 mb 0.00 in0.0 mm 0.00 in0.0 mm 0.00 in0.0 mm
10:03 AM 84.2°F29.0°C 73.3°F22.9°C 70% 12.1 mph ENE19.5 kmh ENE 17.4 mph28.0 kmh 30.07 in1018.3 mb 0.00 in0.0 mm 0.00 in0.0 mm 0.00 in0.0 mm
10:00 AM 84.4°F29.1°C 73.6°F23.1°C 70% 12.1 mph ENE19.5 kmh ENE 18.3 mph29.5 kmh 30.07 in1018.3 mb 0.00 in0.0 mm 0.00 in0.0 mm 0.00 in0.0 mm
09:55 AM 84.0°F28.9°C 73.7°F23.2°C 71% 13.6 mph ENE21.9 kmh ENE 18.3 mph29.5 kmh 30.07 in1018.3 mb 0.00 in0.0 mm 0.00 in0.0 mm 0.00 in0.0 mm
09:50 AM 83.7°F28.7°C 73.7°F23.2°C 72% 13.0 mph NE20.9 kmh NE 18.3 mph29.5 kmh 30.07 in1018.3 mb 0.00 in0.0 mm 0.00 in0.0 mm 0.00 in0.0 mm
09:45 AM 83.3°F28.5°C 73.8°F23.2°C 73% 10.7 mph ENE17.2 kmh ENE 18.3 mph29.5 kmh 30.07 in1018.3 mb 0.00 in0.0 mm 0.00 in0.0 mm 0.00 in0.0 mm
09:40 AM 82.6°F28.1°C 73.5°F23.1°C 74% 10.7 mph ENE17.2 kmh ENE 18.3 mph29.5 kmh 30.07 in1018.3 mb 0.00 in0.0 mm 0.00 in0.0 mm 0.00 in0.0 mm
09:35 AM 82.0°F27.8°C 73.4°F23.0°C 75% 8.3 mph ENE13.4 kmh ENE 15.2 mph24.5 kmh 30.07 in1018.3 mb 0.00 in0.0 mm 0.00 in0.0 mm 0.00 in0.0 mm
09:30 AM 81.5°F27.5°C 73.3°F22.9°C 76% 9.2 mph ENE14.8 kmh ENE 15.2 mph24.5 kmh 30.07 in1018.3 mb 0.00 in0.0 mm 0.00 in0.0 mm 0.00 in0.0 mm
09:25 AM 80.6°F27.0°C 72.8°F22.7°C 77% 6.0 mph ENE9.7 kmh ENE 15.2 mph24.5 kmh 30.07 in1018.3 mb 0.00 in0.0 mm 0.00 in0.0 mm 0.00 in0.0 mm
09:20 AM 79.9°F26.6°C 72.5°F22.5°C 78% 11.4 mph NE18.3 kmh NE 15.2 mph24.5 kmh 30.06 in1017.9 mb 0.00 in0.0 mm 0.00 in0.0 mm 0.00 in0.0 mm
09:15 AM 79.5°F26.4°C 72.1°F22.3°C 78% 10.7 mph NE17.2 kmh NE 15.2 mph24.5 kmh 30.06 in1017.9 mb 0.00 in0.0 mm 0.00 in0.0 mm 0.00 in0.0 mm
09:10 AM 79.3°F26.3°C 72.3°F22.4°C 79% 8.3 mph NE13.4 kmh NE 14.5 mph23.3 kmh 30.06 in1017.9 mb 0.00 in0.0 mm 0.00 in0.0 mm 0.00 in0.0 mm
09:05 AM 79.0°F26.1°C 72.0°F22.2°C 79% 9.8 mph NE15.8 kmh NE 14.5 mph23.3 kmh 30.06 in1017.9 mb 0.00 in0.0 mm 0.00 in0.0 mm 0.00 in0.0 mm
09:00 AM 78.8°F26.0°C 72.2°F22.3°C 80% 9.8 mph NE15.8 kmh NE 14.5 mph23.3 kmh 30.06 in1017.9 mb 0.00 in0.0 mm 0.00 in0.0 mm 0.00 in0.0 mm
08:55 AM 78.4°F25.8°C 72.2°F22.3°C 81% 10.7 mph ENE17.2 kmh ENE 14.5 mph23.3 kmh 30.06 in1017.9 mb 0.00 in0.0 mm 0.00 in0.0 mm 0.00 in0.0 mm
08:50 AM 78.3°F25.7°C 72.4°F22.4°C 82% 12.1 mph E19.5 kmh E 16.8 mph27.0 kmh 30.06 in1017.9 mb 0.00 in0.0 mm 0.00 in0.0 mm 0.00 in0.0 mm
08:45 AM 77.5°F25.3°C 72.0°F22.2°C 83% 9.8 mph ENE15.8 kmh ENE 16.8 mph27.0 kmh 30.06 in1017.9 mb 0.00 in0.0 mm 0.00 in0.0 mm 0.00 in0.0 mm
08:40 AM 76.8°F24.9°C 71.7°F22.1°C 84% 9.2 mph NE14.8 kmh NE 15.9 mph25.6 kmh 30.06 in1017.9 mb 0.00 in0.0 mm 0.00 in0.0 mm 0.00 in0.0 mm
08:35 AM 76.1°F24.5°C 71.3°F21.8°C 85% 9.8 mph NE15.8 kmh NE 15.9 mph25.6 kmh 30.05 in1017.6 mb 0.00 in0.0 mm 0.00 in0.0 mm 0.00 in0.0 mm
08:30 AM 75.2°F24.0°C 70.8°F21.6°C 86% 9.2 mph NE14.8 kmh NE 13.0 mph20.9 kmh 30.05 in1017.6 mb 0.00 in0.0 mm 0.00 in0.0 mm 0.00 in0.0 mm
08:25 AM 74.3°F23.5°C 69.9°F21.1°C 86% 8.3 mph NE13.4 kmh NE 13.6 mph21.9 kmh 30.05 in1017.6 mb 0.00 in0.0 mm 0.00 in0.0 mm 0.00 in0.0 mm
08:20 AM 73.8°F23.2°C 69.4°F20.8°C 86% 5.4 mph NE8.7 kmh NE 15.9 mph25.6 kmh 30.05 in1017.6 mb 0.00 in0.0 mm 0.00 in0.0 mm 0.00 in0.0 mm
08:15 AM 73.6°F23.1°C 69.2°F20.7°C 86% 9.2 mph NE14.8 kmh NE 15.9 mph25.6 kmh 30.05 in1017.6 mb 0.00 in0.0 mm 0.00 in0.0 mm 0.00 in0.0 mm
08:10 AM 73.6°F23.1°C 69.2°F20.7°C 86% 6.9 mph NE11.1 kmh NE 14.5 mph23.3 kmh 30.05 in1017.6 mb 0.00 in0.0 mm 0.00 in0.0 mm 0.00 in0.0 mm
08:05 AM 73.4°F23.0°C 69.3°F20.7°C 87% 8.3 mph NE13.4 kmh NE 14.5 mph23.3 kmh 30.04 in1017.3 mb 0.00 in0.0 mm 0.00 in0.0 mm 0.00 in0.0 mm
08:00 AM 73.4°F23.0°C 69.3°F20.7°C 87% 8.3 mph NE13.4 kmh NE 14.5 mph23.3 kmh 30.04 in1017.3 mb 0.00 in0.0 mm 0.00 in0.0 mm 0.00 in0.0 mm
07:55 AM 73.4°F23.0°C 69.0°F20.6°C 86% 6.0 mph NE9.7 kmh NE 13.0 mph20.9 kmh 30.04 in1017.3 mb 0.00 in0.0 mm 0.00 in0.0 mm 0.00 in0.0 mm
07:50 AM 73.4°F23.0°C 69.3°F20.7°C 87% 6.9 mph ENE11.1 kmh ENE 13.0 mph20.9 kmh 30.04 in1017.3 mb 0.00 in0.0 mm 0.00 in0.0 mm 0.00 in0.0 mm
07:45 AM 73.2°F22.9°C 68.8°F20.4°C 86% 8.3 mph ENE13.4 kmh ENE 14.5 mph23.3 kmh 30.04 in1017.3 mb 0.00 in0.0 mm 0.00 in0.0 mm 0.00 in0.0 mm
07:40 AM 73.2°F22.9°C 69.2°F20.7°C 87% 6.9 mph ENE11.1 kmh ENE 14.5 mph23.3 kmh 30.02 in1016.6 mb 0.00 in0.0 mm 0.00 in0.0 mm 0.00 in0.0 mm
07:35 AM 73.2°F22.9°C 68.8°F20.4°C 86% 6.9 mph ENE11.1 kmh ENE 11.4 mph18.3 kmh 30.03 in1016.9 mb 0.00 in0.0 mm 0.00 in0.0 mm 0.00 in0.0 mm
07:30 AM 73.2°F22.9°C 68.8°F20.4°C 86% 4.5 mph E7.2 kmh E 10.7 mph17.2 kmh 30.03 in1016.9 mb 0.00 in0.0 mm 0.00 in0.0 mm 0.00 in0.0 mm
07:25 AM 73.2°F22.9°C 69.2°F20.7°C 87% 6.0 mph NE9.7 kmh NE 10.7 mph17.2 kmh 30.03 in1016.9 mb 0.00 in0.0 mm 0.00 in0.0 mm 0.00 in0.0 mm
07:20 AM 73.0°F22.8°C 68.6°F20.3°C 86% 7.6 mph NE12.2 kmh NE 11.4 mph18.3 kmh 30.03 in1016.9 mb 0.00 in0.0 mm 0.00 in0.0 mm 0.00 in0.0 mm
07:15 AM 73.2°F22.9°C 69.2°F20.7°C 87% 6.9 mph NE11.1 kmh NE 14.5 mph23.3 kmh 30.02 in1016.6 mb 0.00 in0.0 mm 0.00 in0.0 mm 0.00 in0.0 mm
07:10 AM 73.2°F22.9°C 69.2°F20.7°C 87% 4.5 mph NE7.2 kmh NE 14.5 mph23.3 kmh 30.02 in1016.6 mb 0.00 in0.0 mm 0.00 in0.0 mm 0.00 in0.0 mm
07:05 AM 73.2°F22.9°C 69.2°F20.7°C 87% 6.9 mph NE11.1 kmh NE 12.1 mph19.5 kmh 30.02 in1016.6 mb 0.00 in0.0 mm 0.00 in0.0 mm 0.00 in0.0 mm
07:00 AM 73.2°F22.9°C 69.2°F20.7°C 87% 7.6 mph NE12.2 kmh NE 13.0 mph20.9 kmh 30.02 in1016.6 mb 0.00 in0.0 mm 0.00 in0.0 mm 0.00 in0.0 mm
06:55 AM 73.0°F22.8°C 69.0°F20.6°C 87% 6.0 mph ENE9.7 kmh ENE 13.0 mph20.9 kmh 30.02 in1016.6 mb 0.00 in0.0 mm 0.00 in0.0 mm 0.00 in0.0 mm
06:50 AM 73.0°F22.8°C 69.0°F20.6°C 87% 8.3 mph ENE13.4 kmh ENE 13.0 mph20.9 kmh 30.02 in1016.6 mb 0.00 in0.0 mm 0.00 in0.0 mm 0.00 in0.0 mm
06:45 AM 73.0°F22.8°C 69.0°F20.6°C 87% 9.2 mph NE14.8 kmh NE 13.0 mph20.9 kmh 30.01 in1016.3 mb 0.00 in0.0 mm 0.00 in0.0 mm 0.00 in0.0 mm
06:40 AM 73.0°F22.8°C 69.0°F20.6°C 87% 6.0 mph NE9.7 kmh NE 12.1 mph19.5 kmh 30.02 in1016.6 mb 0.00 in0.0 mm 0.00 in0.0 mm 0.00 in0.0 mm
06:35 AM 73.0°F22.8°C 69.0°F20.6°C 87% 9.2 mph NE14.8 kmh NE 13.6 mph21.9 kmh 30.01 in1016.3 mb 0.00 in0.0 mm 0.00 in0.0 mm 0.00 in0.0 mm
06:30 AM 72.9°F22.7°C 68.8°F20.4°C 87% 6.9 mph ENE11.1 kmh ENE 13.6 mph21.9 kmh 30.01 in1016.3 mb 0.00 in0.0 mm 0.00 in0.0 mm 0.00 in0.0 mm
06:25 AM 72.9°F22.7°C 68.8°F20.4°C 87% 5.4 mph ENE8.7 kmh ENE 12.1 mph19.5 kmh 30.01 in1016.3 mb 0.00 in0.0 mm 0.00 in0.0 mm 0.00 in0.0 mm
06:20 AM 72.9°F22.7°C 68.5°F20.3°C 86% 6.0 mph ENE9.7 kmh ENE 10.7 mph17.2 kmh 30.00 in1015.9 mb 0.00 in0.0 mm 0.00 in0.0 mm 0.00 in0.0 mm
06:15 AM 72.9°F22.7°C 68.5°F20.3°C 86% 6.0 mph NE9.7 kmh NE 12.1 mph19.5 kmh 30.01 in1016.3 mb 0.00 in0.0 mm 0.00 in0.0 mm 0.00 in0.0 mm
06:10 AM 72.9°F22.7°C 68.5°F20.3°C 86% 8.3 mph ENE13.4 kmh ENE 14.5 mph23.3 kmh 30.01 in1016.3 mb 0.00 in0.0 mm 0.00 in0.0 mm 0.00 in0.0 mm
06:05 AM 72.9°F22.7°C 68.5°F20.3°C 86% 6.0 mph ENE9.7 kmh ENE 14.5 mph23.3 kmh 30.00 in1015.9 mb 0.00 in0.0 mm 0.00 in0.0 mm 0.00 in0.0 mm
06:00 AM 73.0°F22.8°C 68.6°F20.3°C 86% 7.6 mph ENE12.2 kmh ENE 12.1 mph19.5 kmh 30.00 in1015.9 mb 0.00 in0.0 mm 0.00 in0.0 mm 0.00 in0.0 mm
05:55 AM 73.0°F22.8°C 68.6°F20.3°C 86% 5.4 mph NE8.7 kmh NE 12.1 mph19.5 kmh 30.00 in1015.9 mb 0.00 in0.0 mm 0.00 in0.0 mm 0.00 in0.0 mm
05:50 AM 73.0°F22.8°C 68.6°F20.3°C 86% 5.4 mph NE8.7 kmh NE 11.4 mph18.3 kmh 30.00 in1015.9 mb 0.00 in0.0 mm 0.00 in0.0 mm 0.00 in0.0 mm
05:45 AM 73.0°F22.8°C 68.6°F20.3°C 86% 6.9 mph NE11.1 kmh NE 12.1 mph19.5 kmh 30.00 in1015.9 mb 0.00 in0.0 mm 0.00 in0.0 mm 0.00 in0.0 mm
05:40 AM 73.0°F22.8°C 68.6°F20.3°C 86% 4.5 mph NE7.2 kmh NE 12.1 mph19.5 kmh 30.00 in1015.9 mb 0.00 in0.0 mm 0.00 in0.0 mm 0.00 in0.0 mm
05:35 AM 73.0°F22.8°C 68.6°F20.3°C 86% 6.9 mph NE11.1 kmh NE 13.0 mph20.9 kmh 30.00 in1015.9 mb 0.00 in0.0 mm 0.00 in0.0 mm 0.00 in0.0 mm
05:30 AM 73.0°F22.8°C 68.6°F20.3°C 86% 6.9 mph NE11.1 kmh NE 13.0 mph20.9 kmh 30.00 in1015.9 mb 0.00 in0.0 mm 0.00 in0.0 mm 0.00 in0.0 mm
05:25 AM 73.0°F22.8°C 68.6°F20.3°C 86% 9.2 mph NE14.8 kmh NE 13.0 mph20.9 kmh 30.00 in1015.9 mb 0.00 in0.0 mm 0.00 in0.0 mm 0.00 in0.0 mm
05:20 AM 72.9°F22.7°C 68.1°F20.1°C 85% 9.2 mph NE14.8 kmh NE 11.4 mph18.3 kmh 30.00 in1015.9 mb 0.00 in0.0 mm 0.00 in0.0 mm 0.00 in0.0 mm
05:15 AM 72.9°F22.7°C 68.1°F20.1°C 85% 6.0 mph NE9.7 kmh NE 9.8 mph15.8 kmh 30.00 in1015.9 mb 0.00 in0.0 mm 0.00 in0.0 mm 0.00 in0.0 mm
05:10 AM 73.0°F22.8°C 68.3°F20.2°C 85% 3.8 mph NE6.1 kmh NE 9.8 mph15.8 kmh 30.00 in1015.9 mb 0.00 in0.0 mm 0.00 in0.0 mm 0.00 in0.0 mm
05:05 AM 73.0°F22.8°C 68.3°F20.2°C 85% 5.4 mph NE8.7 kmh NE 10.7 mph17.2 kmh 30.00 in1015.9 mb 0.00 in0.0 mm 0.00 in0.0 mm 0.00 in0.0 mm
05:00 AM 73.0°F22.8°C 68.3°F20.2°C 85% 4.5 mph NE7.2 kmh NE 10.7 mph17.2 kmh 30.00 in1015.9 mb 0.00 in0.0 mm 0.00 in0.0 mm 0.00 in0.0 mm
04:55 AM 73.0°F22.8°C 68.3°F20.2°C 85% 8.3 mph NE13.4 kmh NE 10.7 mph17.2 kmh 30.00 in1015.9 mb 0.00 in0.0 mm 0.00 in0.0 mm 0.00 in0.0 mm
04:50 AM 73.2°F22.9°C 68.5°F20.3°C 85% 6.9 mph NE11.1 kmh NE 13.0 mph20.9 kmh 30.00 in1015.9 mb 0.00 in0.0 mm 0.00 in0.0 mm 0.00 in0.0 mm
04:45 AM 73.2°F22.9°C 68.1°F20.1°C 84% 5.4 mph NE8.7 kmh NE 13.0 mph20.9 kmh 30.00 in1015.9 mb 0.00 in0.0 mm 0.00 in0.0 mm 0.00 in0.0 mm
04:40 AM 73.2°F22.9°C 68.1°F20.1°C 84% 6.0 mph NE9.7 kmh NE 9.8 mph15.8 kmh 30.00 in1015.9 mb 0.00 in0.0 mm 0.00 in0.0 mm 0.00 in0.0 mm
04:35 AM 73.2°F22.9°C 68.1°F20.1°C 84% 6.9 mph NE11.1 kmh NE 9.8 mph15.8 kmh 30.00 in1015.9 mb 0.00 in0.0 mm 0.00 in0.0 mm 0.00 in0.0 mm
04:30 AM 73.2°F22.9°C 68.1°F20.1°C 84% 6.9 mph NE11.1 kmh NE 9.8 mph15.8 kmh 30.00 in1015.9 mb 0.00 in0.0 mm 0.00 in0.0 mm 0.00 in0.0 mm
04:25 AM 73.2°F22.9°C 68.1°F20.1°C 84% 5.4 mph NE8.7 kmh NE 14.5 mph23.3 kmh 30.00 in1015.9 mb 0.00 in0.0 mm 0.00 in0.0 mm 0.00 in0.0 mm
04:20 AM 73.4°F23.0°C 68.3°F20.2°C 84% 6.9 mph NE11.1 kmh NE 14.5 mph23.3 kmh 30.00 in1015.9 mb 0.00 in0.0 mm 0.00 in0.0 mm 0.00 in0.0 mm
04:15 AM 73.4°F23.0°C 68.0°F20.0°C 83% 6.0 mph NE9.7 kmh NE 9.2 mph14.8 kmh 30.00 in1015.9 mb 0.00 in0.0 mm 0.00 in0.0 mm 0.00 in0.0 mm
04:10 AM 73.4°F23.0°C 68.0°F20.0°C 83% 6.0 mph NE9.7 kmh NE 9.2 mph14.8 kmh 30.00 in1015.9 mb 0.00 in0.0 mm 0.00 in0.0 mm 0.00 in0.0 mm
04:05 AM 73.4°F23.0°C 68.0°F20.0°C 83% 4.5 mph NE7.2 kmh NE 9.8 mph15.8 kmh 30.00 in1015.9 mb 0.00 in0.0 mm 0.00 in0.0 mm 0.00 in0.0 mm
04:00 AM 73.6°F23.1°C 68.1°F20.1°C 83% 5.4 mph NE8.7 kmh NE 9.8 mph15.8 kmh 29.99 in1015.6 mb 0.00 in0.0 mm 0.00 in0.0 mm 0.00 in0.0 mm
03:55 AM 73.6°F23.1°C 68.1°F20.1°C 83% 6.0 mph NE9.7 kmh NE 9.8 mph15.8 kmh 30.00 in1015.9 mb 0.00 in0.0 mm 0.00 in0.0 mm 0.00 in0.0 mm
03:50 AM 73.6°F23.1°C 68.1°F20.1°C 83% 6.0 mph NE9.7 kmh NE 9.2 mph14.8 kmh 30.00 in1015.9 mb 0.00 in0.0 mm 0.00 in0.0 mm 0.00 in0.0 mm
03:45 AM 73.6°F23.1°C 67.8°F19.9°C 82% 5.4 mph NE8.7 kmh NE 9.2 mph14.8 kmh 30.00 in1015.9 mb 0.00 in0.0 mm 0.00 in0.0 mm 0.00 in0.0 mm
03:40 AM 73.6°F23.1°C 67.8°F19.9°C 82% 4.5 mph NE7.2 kmh NE 9.2 mph14.8 kmh 30.00 in1015.9 mb 0.00 in0.0 mm 0.00 in0.0 mm 0.00 in0.0 mm
03:35 AM 73.6°F23.1°C 67.8°F19.9°C 82% 6.0 mph NE9.7 kmh NE 8.3 mph13.4 kmh 30.00 in1015.9 mb 0.00 in0.0 mm 0.00 in0.0 mm 0.00 in0.0 mm
03:30 AM 73.8°F23.2°C 68.0°F20.0°C 82% 3.8 mph NE6.1 kmh NE 6.9 mph11.1 kmh 30.01 in1016.3 mb 0.00 in0.0 mm 0.00 in0.0 mm 0.00 in0.0 mm
03:25 AM 73.8°F23.2°C 68.0°F20.0°C 82% 3.8 mph NE6.1 kmh NE 6.9 mph11.1 kmh 30.00 in1015.9 mb 0.00 in0.0 mm 0.00 in0.0 mm 0.00 in0.0 mm
03:20 AM 73.9°F23.3°C 68.1°F20.1°C 82% 3.8 mph NE6.1 kmh NE 7.6 mph12.2 kmh 30.01 in1016.3 mb 0.00 in0.0 mm 0.00 in0.0 mm 0.00 in0.0 mm
03:15 AM 73.9°F23.3°C 68.1°F20.1°C 82% 4.5 mph NE7.2 kmh NE 8.3 mph13.4 kmh 30.01 in1016.3 mb 0.00 in0.0 mm 0.00 in0.0 mm 0.00 in0.0 mm
03:10 AM 73.9°F23.3°C 68.1°F20.1°C 82% 4.5 mph NE7.2 kmh NE 8.3 mph13.4 kmh 30.01 in1016.3 mb 0.00 in0.0 mm 0.00 in0.0 mm 0.00 in0.0 mm
03:05 AM 73.9°F23.3°C 68.1°F20.1°C 82% 4.5 mph NE7.2 kmh NE 8.3 mph13.4 kmh 30.00 in1015.9 mb 0.00 in0.0 mm 0.00 in0.0 mm 0.00 in0.0 mm
03:00 AM 74.1°F23.4°C 68.0°F20.0°C 81% 4.5 mph NE7.2 kmh NE 8.3 mph13.4 kmh 30.00 in1015.9 mb 0.00 in0.0 mm 0.00 in0.0 mm 0.00 in0.0 mm
02:55 AM 74.1°F23.4°C 68.0°F20.0°C 81% 4.5 mph NE7.2 kmh NE 8.3 mph13.4 kmh 30.01 in1016.3 mb 0.00 in0.0 mm 0.00 in0.0 mm 0.00 in0.0 mm
02:50 AM 74.1°F23.4°C 68.0°F20.0°C 81% 4.5 mph NE7.2 kmh NE 9.8 mph15.8 kmh 30.00 in1015.9 mb 0.00 in0.0 mm 0.00 in0.0 mm 0.00 in0.0 mm
02:45 AM 74.3°F23.5°C 68.1°F20.1°C 81% 6.0 mph ENE9.7 kmh ENE 11.4 mph18.3 kmh 30.01 in1016.3 mb 0.00 in0.0 mm 0.00 in0.0 mm 0.00 in0.0 mm
02:40 AM 74.3°F23.5°C 68.1°F20.1°C 81% 3.8 mph NE6.1 kmh NE 11.4 mph18.3 kmh 30.01 in1016.3 mb 0.00 in0.0 mm 0.00 in0.0 mm 0.00 in0.0 mm
02:35 AM 74.5°F23.6°C 68.3°F20.2°C 81% 8.3 mph NE13.4 kmh NE 11.4 mph18.3 kmh 30.01 in1016.3 mb 0.00 in0.0 mm 0.00 in0.0 mm 0.00 in0.0 mm
02:30 AM 74.5°F23.6°C 68.3°F20.2°C 81% 6.0 mph NE9.7 kmh NE 9.8 mph15.8 kmh 30.01 in1016.3 mb 0.00 in0.0 mm 0.00 in0.0 mm 0.00 in0.0 mm
02:25 AM 74.7°F23.7°C 68.1°F20.1°C 80% 5.4 mph NE8.7 kmh NE 9.8 mph15.8 kmh 30.01 in1016.3 mb 0.00 in0.0 mm 0.00 in0.0 mm 0.00 in0.0 mm
02:20 AM 74.7°F23.7°C 68.1°F20.1°C 80% 6.9 mph NE11.1 kmh NE 10.7 mph17.2 kmh 30.02 in1016.6 mb 0.00 in0.0 mm 0.00 in0.0 mm 0.00 in0.0 mm
02:15 AM 74.7°F23.7°C 68.1°F20.1°C 80% 7.6 mph NE12.2 kmh NE 10.7 mph17.2 kmh 30.02 in1016.6 mb 0.00 in0.0 mm 0.00 in0.0 mm 0.00 in0.0 mm
02:10 AM 74.8°F23.8°C 68.3°F20.2°C 80% 7.6 mph NE12.2 kmh NE 10.7 mph17.2 kmh 30.02 in1016.6 mb 0.00 in0.0 mm 0.00 in0.0 mm 0.00 in0.0 mm
02:05 AM 75.0°F23.9°C 68.5°F20.3°C 80% 6.9 mph NE11.1 kmh NE 10.7 mph17.2 kmh 30.02 in1016.6 mb 0.00 in0.0 mm 0.00 in0.0 mm 0.00 in0.0 mm
02:00 AM 75.0°F23.9°C 68.1°F20.1°C 79% 6.9 mph NE11.1 kmh NE 10.7 mph17.2 kmh 30.02 in1016.6 mb 0.00 in0.0 mm 0.00 in0.0 mm 0.00 in0.0 mm
01:55 AM 75.2°F24.0°C 68.3°F20.2°C 79% 6.0 mph NE9.7 kmh NE 12.1 mph19.5 kmh 30.02 in1016.6 mb 0.00 in0.0 mm 0.00 in0.0 mm 0.00 in0.0 mm
01:50 AM 75.4°F24.1°C 68.5°F20.3°C 79% 6.9 mph NE11.1 kmh NE 12.1 mph19.5 kmh 30.02 in1016.6 mb 0.00 in0.0 mm 0.00 in0.0 mm 0.00 in0.0 mm
01:45 AM 75.2°F24.0°C 68.3°F20.2°C 79% 8.3 mph NE13.4 kmh NE 12.1 mph19.5 kmh 30.02 in1016.6 mb 0.00 in0.0 mm 0.00 in0.0 mm 0.00 in0.0 mm
01:40 AM 75.2°F24.0°C 68.3°F20.2°C 79% 7.6 mph NE12.2 kmh NE 11.4 mph18.3 kmh 30.02 in1016.6 mb 0.00 in0.0 mm 0.00 in0.0 mm 0.00 in0.0 mm
01:35 AM 75.4°F24.1°C 68.5°F20.3°C 79% 9.2 mph NE14.8 kmh NE 12.1 mph19.5 kmh 30.02 in1016.6 mb 0.00 in0.0 mm 0.00 in0.0 mm 0.00 in0.0 mm
01:30 AM 75.4°F24.1°C 68.1°F20.1°C 78% 6.0 mph NE9.7 kmh NE 12.1 mph19.5 kmh 30.02 in1016.6 mb 0.00 in0.0 mm 0.00 in0.0 mm 0.00 in0.0 mm
01:25 AM 75.4°F24.1°C 68.1°F20.1°C 78% 8.3 mph NE13.4 kmh NE 12.1 mph19.5 kmh 30.02 in1016.6 mb 0.00 in0.0 mm 0.00 in0.0 mm 0.00 in0.0 mm
01:20 AM 75.6°F24.2°C 68.3°F20.2°C 78% 4.5 mph NE7.2 kmh NE 10.7 mph17.2 kmh 30.02 in1016.6 mb 0.00 in0.0 mm 0.00 in0.0 mm 0.00 in0.0 mm
01:15 AM 75.6°F24.2°C 68.3°F20.2°C 78% 5.4 mph NE8.7 kmh NE 9.8 mph15.8 kmh 30.03 in1016.9 mb 0.00 in0.0 mm 0.00 in0.0 mm 0.00 in0.0 mm
01:10 AM 75.6°F24.2°C 68.3°F20.2°C 78% 6.9 mph NE11.1 kmh NE 9.8 mph15.8 kmh 30.03 in1016.9 mb 0.00 in0.0 mm 0.00 in0.0 mm 0.00 in0.0 mm
01:05 AM 75.7°F24.3°C 68.1°F20.1°C 77% 6.9 mph NE11.1 kmh NE 11.4 mph18.3 kmh 30.03 in1016.9 mb 0.00 in0.0 mm 0.00 in0.0 mm 0.00 in0.0 mm
01:00 AM 75.7°F24.3°C 68.1°F20.1°C 77% 3.8 mph NE6.1 kmh NE 13.0 mph20.9 kmh 30.03 in1016.9 mb 0.00 in0.0 mm 0.00 in0.0 mm 0.00 in0.0 mm
12:55 AM 75.9°F24.4°C 68.2°F20.1°C 77% 8.3 mph NE13.4 kmh NE 13.0 mph20.9 kmh 30.03 in1016.9 mb 0.00 in0.0 mm 0.00 in0.0 mm 0.00 in0.0 mm
12:50 AM 75.9°F24.4°C 68.2°F20.1°C 77% 6.0 mph NE9.7 kmh NE 11.4 mph18.3 kmh 30.03 in1016.9 mb 0.00 in0.0 mm 0.00 in0.0 mm 0.00 in0.0 mm
12:45 AM 76.1°F24.5°C 68.4°F20.2°C 77% 6.0 mph NE9.7 kmh NE 11.4 mph18.3 kmh 30.04 in1017.3 mb 0.00 in0.0 mm 0.00 in0.0 mm 0.00 in0.0 mm
12:40 AM 76.1°F24.5°C 68.4°F20.2°C 77% 7.6 mph NE12.2 kmh NE 12.1 mph19.5 kmh 30.03 in1016.9 mb 0.00 in0.0 mm 0.00 in0.0 mm 0.00 in0.0 mm
12:35 AM 76.1°F24.5°C 68.4°F20.2°C 77% 7.6 mph NE12.2 kmh NE 13.6 mph21.9 kmh 30.04 in1017.3 mb 0.00 in0.0 mm 0.00 in0.0 mm 0.00 in0.0 mm
12:30 AM 76.3°F24.6°C 68.2°F20.1°C 76% 7.6 mph ENE12.2 kmh ENE 13.6 mph21.9 kmh 30.03 in1016.9 mb 0.00 in0.0 mm 0.00 in0.0 mm 0.00 in0.0 mm
12:25 AM 76.3°F24.6°C 68.2°F20.1°C 76% 5.4 mph NE8.7 kmh NE 11.4 mph18.3 kmh 30.04 in1017.3 mb 0.00 in0.0 mm 0.00 in0.0 mm 0.00 in0.0 mm
12:20 AM 76.5°F24.7°C 68.4°F20.2°C 76% 5.4 mph NE8.7 kmh NE 13.6 mph21.9 kmh 30.04 in1017.3 mb 0.00 in0.0 mm 0.00 in0.0 mm 0.00 in0.0 mm
12:15 AM 76.6°F24.8°C 68.6°F20.3°C 76% 7.6 mph NE12.2 kmh NE 13.6 mph21.9 kmh 30.04 in1017.3 mb 0.00 in0.0 mm 0.00 in0.0 mm 0.00 in0.0 mm
12:10 AM 76.6°F24.8°C 68.6°F20.3°C 76% 7.6 mph NE12.2 kmh NE 13.6 mph21.9 kmh 30.04 in1017.3 mb 0.00 in0.0 mm 0.00 in0.0 mm 0.00 in0.0 mm
12:05 AM 76.6°F24.8°C 68.6°F20.3°C 76% 6.0 mph NE9.7 kmh NE 13.6 mph21.9 kmh 30.04 in1017.3 mb 0.00 in0.0 mm 0.00 in0.0 mm 0.00 in0.0 mm
12:00 AM 76.6°F24.8°C 68.2°F20.1°C 75% 6.9 mph NE11.1 kmh NE 12.1 mph19.5 kmh 30.04 in1017.3 mb 0.00 in0.0 mm 0.00 in0.0 mm 0.00 in0.0 mm